Time;durP1;ratioP1;P1;durP2;ratioP2;P2;SDS_P1;SDS_P2;PMS_P1;PMS_P2;Temp;Humidity;BMP_temperature;BMP_pressure;BME280_temperature;BME280_humidity;BME280_pressure;Samples;Min_cycle;Max_cycle;Signal;HPM_P1;HPM_P2
2023/10/07 00:01:45;;;;;;;16.48;3.60;;;16.70;84.50;;;;;;5003485;28;20081;-80
2023/10/07 00:04:14;;;;;;;14.90;3.35;;;16.70;84.60;;;;;;5011748;28;20053;-80
2023/10/07 00:06:45;;;;;;;13.37;3.50;;;16.70;84.50;;;;;;5002595;28;20050;-80
2023/10/07 00:09:15;;;;;;;16.20;3.33;;;16.80;84.60;;;;;;5028061;28;20268;-80
2023/10/07 00:11:46;;;;;;;12.82;3.25;;;16.70;84.60;;;;;;5005376;28;20112;-80
2023/10/07 00:14:14;;;;;;;17.23;3.17;;;16.80;84.60;;;;;;4997718;28;20161;-80
2023/10/07 00:16:43;;;;;;;10.23;2.83;;;16.80;84.60;;;;;;5023218;28;20451;-80
2023/10/07 00:19:10;;;;;;;13.47;3.60;;;16.80;84.60;;;;;;4993656;28;20070;-80
2023/10/07 00:21:53;;;;;;;11.65;3.05;;;16.80;84.60;;;;;;5003132;28;20266;-80
2023/10/07 00:24:25;;;;;;;11.13;2.40;;;16.70;84.70;;;;;;5020242;28;20097;-80
2023/10/07 00:26:52;;;;;;;12.05;2.85;;;16.80;84.70;;;;;;5011505;28;20160;-79
2023/10/07 00:29:21;;;;;;;11.20;3.50;;;16.80;84.70;;;;;;5011381;28;20049;-80
2023/10/07 00:31:50;;;;;;;14.70;3.30;;;16.80;84.70;;;;;;5008051;28;20108;-80
2023/10/07 00:34:25;;;;;;;11.90;3.40;;;16.80;84.70;;;;;;4988553;28;20360;-80
2023/10/07 00:36:56;;;;;;;10.18;2.33;;;16.80;84.70;;;;;;5016758;28;20144;-80
2023/10/07 00:39:31;;;;;;;12.77;3.10;;;16.80;84.80;;;;;;4989088;28;20050;-80
2023/10/07 00:41:59;;;;;;;13.10;3.72;;;16.80;84.70;;;;;;5019991;28;20663;-80
2023/10/07 00:44:33;;;;;;;11.93;3.03;;;16.80;84.70;;;;;;5018376;28;20115;-80
2023/10/07 00:47:13;;;;;;;15.05;3.15;;;16.80;84.90;;;;;;5010976;28;20270;-80
2023/10/07 00:49:50;;;;;;;15.73;3.42;;;16.80;84.80;;;;;;4994084;28;20797;-80
2023/10/07 00:52:28;;;;;;;13.98;3.03;;;16.80;84.90;;;;;;5011279;28;20056;-80
2023/10/07 00:55:17;;;;;;;12.10;3.03;;;16.80;85.00;;;;;;4982508;28;20046;-80
2023/10/07 00:57:51;;;;;;;11.10;2.90;;;16.80;85.00;;;;;;5019308;28;20576;-80
2023/10/07 01:00:34;;;;;;;12.80;3.05;;;16.80;85.00;;;;;;5017281;28;20353;-80
2023/10/07 01:03:13;;;;;;;13.23;2.80;;;16.90;84.90;;;;;;5017698;28;20046;-80
2023/10/07 01:05:44;;;;;;;11.65;2.72;;;16.90;85.10;;;;;;5027254;28;20057;-80
2023/10/07 01:08:12;;;;;;;14.00;2.95;;;16.90;85.20;;;;;;5007721;28;20086;-80
2023/10/07 01:10:53;;;;;;;11.57;2.80;;;16.90;85.10;;;;;;5009722;28;20057;-80
2023/10/07 01:13:29;;;;;;;11.02;3.35;;;16.90;85.30;;;;;;5001078;28;21037;-81
2023/10/07 01:15:58;;;;;;;11.60;3.10;;;16.90;85.30;;;;;;4986407;28;20588;-80
2023/10/07 01:18:27;;;;;;;13.20;2.90;;;17.00;85.40;;;;;;4985955;28;20049;-80
2023/10/07 01:21:11;;;;;;;13.23;3.35;;;17.00;85.50;;;;;;5001617;28;20513;-80
2023/10/07 01:23:44;;;;;;;14.20;2.83;;;17.00;85.40;;;;;;4995339;28;20445;-80
2023/10/07 01:26:20;;;;;;;9.32;2.53;;;17.00;85.50;;;;;;4986977;28;20262;-80
2023/10/07 01:28:50;;;;;;;12.75;3.13;;;17.00;85.50;;;;;;4974675;28;20544;-80
2023/10/07 01:31:19;;;;;;;12.30;3.30;;;17.00;85.50;;;;;;4989401;28;20354;-80
2023/10/07 01:33:47;;;;;;;15.00;4.13;;;17.00;85.50;;;;;;4992505;28;20116;-80
2023/10/07 01:36:18;;;;;;;15.30;4.03;;;17.00;85.50;;;;;;5012653;28;20061;-80
2023/10/07 01:38:51;;;;;;;13.27;2.90;;;17.10;85.50;;;;;;5010507;28;20274;-80
2023/10/07 01:41:20;;;;;;;13.07;3.60;;;17.10;85.50;;;;;;5009514;28;20503;-80
2023/10/07 01:43:56;;;;;;;9.77;2.30;;;17.00;85.50;;;;;;5003823;28;20046;-80
2023/10/07 01:46:27;;;;;;;13.65;3.50;;;17.00;85.70;;;;;;5018607;28;20050;-80
2023/10/07 01:48:57;;;;;;;9.40;2.83;;;17.00;85.80;;;;;;5006856;28;20057;-80
2023/10/07 01:51:26;;;;;;;11.40;3.17;;;17.00;85.70;;;;;;5008494;28;20913;-80
2023/10/07 01:53:56;;;;;;;12.73;3.85;;;17.10;85.80;;;;;;4990516;28;20615;-80
2023/10/07 01:56:26;;;;;;;12.18;3.30;;;17.10;85.70;;;;;;4989326;28;20350;-80
2023/10/07 01:58:55;;;;;;;9.98;2.63;;;17.10;85.70;;;;;;5001417;28;20065;-80
2023/10/07 02:01:23;;;;;;;14.27;3.33;;;17.20;85.40;;;;;;5007670;28;20072;-80
2023/10/07 02:03:51;;;;;;;15.05;3.92;;;17.10;85.50;;;;;;5010130;28;20277;-81
2023/10/07 02:06:19;;;;;;;12.27;3.17;;;17.10;85.60;;;;;;5007483;28;20499;-80
2023/10/07 02:08:48;;;;;;;13.90;3.40;;;17.10;85.60;;;;;;4989836;28;20129;-80
2023/10/07 02:11:18;;;;;;;13.32;3.80;;;17.10;85.60;;;;;;5022101;28;20112;-80
2023/10/07 02:13:46;;;;;;;12.83;3.03;;;17.10;85.70;;;;;;5017877;28;20332;-80
2023/10/07 02:16:16;;;;;;;12.63;3.42;;;17.20;85.70;;;;;;4996922;28;20285;-80
2023/10/07 02:18:47;;;;;;;10.48;3.50;;;17.20;85.70;;;;;;5007294;28;20108;-81
2023/10/07 02:21:16;;;;;;;11.43;3.47;;;17.20;85.70;;;;;;4996181;28;20074;-80
2023/10/07 02:23:44;;;;;;;11.38;3.35;;;17.20;85.70;;;;;;5008012;28;20140;-80
2023/10/07 02:26:17;;;;;;;9.50;2.57;;;17.20;85.70;;;;;;5006512;28;20611;-80
2023/10/07 02:28:46;;;;;;;9.98;2.90;;;17.20;85.80;;;;;;5006891;28;20402;-80
2023/10/07 02:31:18;;;;;;;9.13;2.70;;;17.20;85.90;;;;;;5004253;28;20498;-80
2023/10/07 02:33:51;;;;;;;12.80;3.53;;;17.20;86.00;;;;;;4993698;28;20046;-80
2023/10/07 02:36:29;;;;;;;14.82;3.80;;;17.30;86.00;;;;;;5005803;28;20046;-80
2023/10/07 02:39:02;;;;;;;14.80;3.80;;;17.20;85.90;;;;;;5029586;28;20544;-80
2023/10/07 02:41:31;;;;;;;13.73;3.78;;;17.40;85.90;;;;;;5014381;28;20348;-80
2023/10/07 02:44:05;;;;;;;14.23;3.08;;;17.30;85.90;;;;;;5002749;28;20130;-80
2023/10/07 02:46:34;;;;;;;15.23;3.30;;;17.40;85.90;;;;;;5028033;28;20050;-80
2023/10/07 02:49:05;;;;;;;9.23;3.05;;;17.40;85.80;;;;;;5009528;28;20647;-80
2023/10/07 02:51:33;;;;;;;14.97;3.83;;;17.50;85.60;;;;;;5021462;28;20595;-80
2023/10/07 02:54:04;;;;;;;10.18;2.35;;;17.40;85.70;;;;;;5005695;28;20257;-80
2023/10/07 02:56:43;;;;;;;14.02;2.75;;;17.50;85.70;;;;;;5010220;28;20049;-80
2023/10/07 02:59:24;;;;;;;11.55;2.97;;;17.50;85.70;;;;;;4994240;28;20042;-80
2023/10/07 03:02:12;;;;;;;11.82;3.60;;;17.50;85.80;;;;;;5007907;28;20675;-80
2023/10/07 03:04:42;;;;;;;10.63;2.40;;;17.50;85.80;;;;;;4995634;28;20523;-80
2023/10/07 03:07:19;;;;;;;15.20;3.38;;;17.50;85.70;;;;;;4996222;28;20252;-80
2023/10/07 03:09:53;;;;;;;8.95;2.15;;;17.50;85.70;;;;;;5019659;28;20050;-80
2023/10/07 03:12:27;;;;;;;12.73;3.30;;;17.50;85.70;;;;;;4998742;28;20149;-80
2023/10/07 03:15:00;;;;;;;9.77;2.72;;;17.50;85.70;;;;;;4991237;28;20049;-80
2023/10/07 03:17:37;;;;;;;13.90;4.00;;;17.50;85.80;;;;;;4987669;28;20449;-81
2023/10/07 03:23:10;;;;;;;13.05;3.70;;;17.50;85.70;;;;;;5007648;28;20054;-80
2023/10/07 03:26:05;;;;;;;10.90;3.20;;;17.50;85.70;;;;;;5011637;28;20100;-80
2023/10/07 03:28:35;;;;;;;13.50;3.80;;;17.50;85.80;;;;;;5010734;28;20636;-80
2023/10/07 03:31:10;;;;;;;16.50;3.60;;;17.50;85.80;;;;;;5009241;28;20055;-80
2023/10/07 03:33:44;;;;;;;8.30;2.10;;;17.50;85.90;;;;;;4999995;28;20285;-80
2023/10/07 03:36:30;;;;;;;11.70;3.08;;;17.50;85.90;;;;;;5021934;28;20041;-80
2023/10/07 03:39:11;;;;;;;9.65;2.72;;;17.50;85.80;;;;;;5000161;28;20519;-81
2023/10/07 03:41:41;;;;;;;14.10;3.58;;;17.50;85.80;;;;;;5009464;28;20583;-80
2023/10/07 03:44:09;;;;;;;8.33;2.80;;;17.50;85.90;;;;;;5003200;28;20054;-80
2023/10/07 03:46:38;;;;;;;9.38;2.50;;;17.50;85.80;;;;;;5017098;28;20266;-81
2023/10/07 03:49:06;;;;;;;11.23;3.08;;;17.50;85.70;;;;;;5017292;28;20046;-81
2023/10/07 03:51:35;;;;;;;13.15;3.33;;;17.50;85.70;;;;;;4995532;28;20543;-80
2023/10/07 03:54:09;;;;;;;11.60;2.80;;;17.50;85.70;;;;;;5028180;28;20065;-80
2023/10/07 03:56:37;;;;;;;10.13;2.53;;;17.50;85.70;;;;;;5011090;28;20538;-80
2023/10/07 03:59:05;;;;;;;8.02;2.15;;;17.50;85.70;;;;;;5009540;28;20274;-80
2023/10/07 04:01:32;;;;;;;12.15;3.30;;;17.50;85.80;;;;;;5011461;28;20051;-80
2023/10/07 04:04:01;;;;;;;9.77;2.33;;;17.50;85.70;;;;;;5003388;28;20054;-80
2023/10/07 04:06:31;;;;;;;8.75;2.42;;;17.60;85.70;;;;;;5023740;28;20057;-80
2023/10/07 04:09:06;;;;;;;10.00;2.70;;;17.60;85.70;;;;;;4998140;28;20526;-80
2023/10/07 04:11:34;;;;;;;12.48;2.70;;;17.50;85.70;;;;;;4996519;28;20567;-80
2023/10/07 04:14:08;;;;;;;11.27;3.40;;;17.60;85.70;;;;;;5019914;28;20058;-80
2023/10/07 04:16:36;;;;;;;7.75;2.47;;;17.50;85.70;;;;;;5011875;28;20060;-80
2023/10/07 04:19:30;;;;;;;8.20;2.25;;;17.60;85.70;;;;;;5011623;28;20634;-80
2023/10/07 04:21:56;;;;;;;10.17;3.17;;;17.60;85.70;;;;;;5019704;28;20138;-80
2023/10/07 04:24:28;;;;;;;11.10;3.38;;;17.60;85.80;;;;;;5001515;28;20305;-80
2023/10/07 04:27:02;;;;;;;9.93;2.60;;;17.60;85.80;;;;;;5018012;28;20108;-80
2023/10/07 04:29:31;;;;;;;8.82;2.50;;;17.60;85.80;;;;;;4994978;28;20056;-80
2023/10/07 04:32:05;;;;;;;12.98;3.60;;;17.60;85.80;;;;;;5009153;28;20057;-80
2023/10/07 04:34:45;;;;;;;13.67;3.97;;;17.60;85.80;;;;;;5011448;28;20046;-80
2023/10/07 04:37:14;;;;;;;12.00;3.33;;;17.60;85.80;;;;;;5021532;28;20250;-80
2023/10/07 04:42:22;;;;;;;11.77;3.25;;;17.60;85.60;;;;;;4984458;28;20505;-80
2023/10/07 04:45:21;;;;;;;13.90;2.90;;;17.60;85.70;;;;;;5019763;28;20050;-80
2023/10/07 04:47:49;;;;;;;7.40;2.43;;;17.60;85.70;;;;;;5015536;28;20492;-80
2023/10/07 04:50:19;;;;;;;10.18;3.28;;;17.60;85.80;;;;;;4991878;28;20349;-80
2023/10/07 04:52:51;;;;;;;15.75;3.55;;;17.60;85.80;;;;;;5007005;28;20063;-80
2023/10/07 04:55:19;;;;;;;12.52;3.00;;;17.60;85.70;;;;;;4990128;28;20050;-80
2023/10/07 04:57:57;;;;;;;9.88;1.95;;;17.60;85.70;;;;;;5009030;28;20062;-80
2023/10/07 05:00:27;;;;;;;13.30;2.83;;;17.60;85.80;;;;;;5007629;28;20053;-80
2023/10/07 05:02:57;;;;;;;11.93;3.40;;;17.60;85.80;;;;;;5005631;28;20802;-80
2023/10/07 05:05:29;;;;;;;10.57;2.85;;;17.60;85.80;;;;;;4986501;28;20051;-81
2023/10/07 05:07:58;;;;;;;11.85;3.30;;;17.60;85.80;;;;;;5008678;28;20054;-81
2023/10/07 05:10:29;;;;;;;9.48;2.45;;;17.50;85.80;;;;;;5001593;28;20051;-80
2023/10/07 05:13:00;;;;;;;10.47;2.93;;;17.60;85.90;;;;;;5027945;28;20050;-80
2023/10/07 05:15:27;;;;;;;14.38;3.20;;;17.60;85.80;;;;;;5009277;28;20290;-80
2023/10/07 05:17:54;;;;;;;11.15;3.17;;;17.50;85.80;;;;;;5009077;28;20508;-80
2023/10/07 05:20:27;;;;;;;9.82;3.00;;;17.50;85.90;;;;;;5010802;28;20209;-80
2023/10/07 05:22:56;;;;;;;15.32;3.60;;;17.60;85.90;;;;;;5016174;28;20057;-80
2023/10/07 05:25:23;;;;;;;9.93;2.50;;;17.50;85.90;;;;;;5017908;28;20337;-80
2023/10/07 05:27:51;;;;;;;7.82;2.40;;;17.50;85.90;;;;;;5006901;28;20265;-80
2023/10/07 05:30:18;;;;;;;15.57;2.80;;;17.50;85.90;;;;;;5015219;28;20046;-80
2023/10/07 05:32:46;;;;;;;6.45;1.85;;;17.50;85.90;;;;;;4988349;28;20053;-80
2023/10/07 05:35:15;;;;;;;12.93;3.40;;;17.50;85.90;;;;;;5019424;28;20132;-81
2023/10/07 05:37:44;;;;;;;4.97;1.37;;;17.50;85.90;;;;;;4982500;28;20045;-80
2023/10/07 05:40:16;;;;;;;11.73;3.10;;;17.50;86.00;;;;;;5016800;28;20284;-80
2023/10/07 05:42:43;;;;;;;9.10;1.92;;;17.50;86.00;;;;;;5007234;28;20080;-81
2023/10/07 05:45:14;;;;;;;14.27;3.63;;;17.50;86.10;;;;;;4998535;28;20164;-80
2023/10/07 05:47:44;;;;;;;9.35;2.83;;;17.50;86.00;;;;;;5001401;28;20603;-80
2023/10/07 05:50:12;;;;;;;9.60;1.90;;;17.50;86.10;;;;;;5026236;28;20612;-80
2023/10/07 05:52:40;;;;;;;9.43;2.60;;;17.50;86.10;;;;;;5026416;28;20831;-80
2023/10/07 05:55:10;;;;;;;9.55;2.92;;;17.50;86.10;;;;;;5007651;28;20522;-80
2023/10/07 05:57:39;;;;;;;10.00;2.47;;;17.50;86.10;;;;;;5003419;28;20049;-81
2023/10/07 06:00:09;;;;;;;10.52;3.20;;;17.50;86.00;;;;;;4986017;28;20063;-81
2023/10/07 06:02:38;;;;;;;12.47;3.57;;;17.50;85.90;;;;;;5009839;28;20093;-80
2023/10/07 06:05:10;;;;;;;12.85;3.63;;;17.50;86.00;;;;;;4991777;28;20367;-80
2023/10/07 06:07:38;;;;;;;10.40;3.25;;;17.50;86.00;;;;;;4988969;28;20062;-80
2023/10/07 06:10:09;;;;;;;10.55;3.03;;;17.50;86.00;;;;;;5020095;28;20097;-80
2023/10/07 06:12:37;;;;;;;11.68;2.45;;;17.50;86.10;;;;;;5003299;28;20042;-80
2023/10/07 06:15:08;;;;;;;11.07;2.60;;;17.50;86.10;;;;;;5002383;28;20064;-80
2023/10/07 06:17:35;;;;;;;14.10;3.60;;;17.50;86.20;;;;;;5023330;28;20769;-80
2023/10/07 06:20:14;;;;;;;12.27;3.00;;;17.50;86.10;;;;;;5014649;28;20056;-80
2023/10/07 06:22:45;;;;;;;15.40;3.63;;;17.50;86.20;;;;;;4995312;28;20562;-80
2023/10/07 06:25:12;;;;;;;9.32;2.90;;;17.50;86.30;;;;;;5018843;28;20059;-81
2023/10/07 06:27:43;;;;;;;17.13;3.70;;;17.50;86.30;;;;;;5007242;28;20062;-78
2023/10/07 06:30:12;;;;;;;11.68;2.80;;;17.50;86.30;;;;;;4992679;28;20250;-78
2023/10/07 06:32:45;;;;;;;15.30;3.40;;;17.50;86.30;;;;;;5012985;28;20532;-80
2023/10/07 06:35:19;;;;;;;11.30;3.67;;;17.50;86.10;;;;;;5001641;28;20065;-81
2023/10/07 06:37:48;;;;;;;14.80;3.85;;;17.50;86.20;;;;;;5006061;28;20512;-80
2023/10/07 06:40:28;;;;;;;12.33;3.30;;;17.50;86.00;;;;;;4992675;28;20047;-80
2023/10/07 06:42:58;;;;;;;16.20;3.72;;;17.50;86.00;;;;;;5000752;28;20293;-80
2023/10/07 06:45:29;;;;;;;11.30;3.15;;;17.50;85.90;;;;;;5012598;28;20050;-80
2023/10/07 06:47:59;;;;;;;11.93;3.10;;;17.50;85.90;;;;;;5024674;28;20052;-81
2023/10/07 06:50:28;;;;;;;10.38;2.97;;;17.50;85.80;;;;;;5019343;28;20117;-80
2023/10/07 06:52:55;;;;;;;9.77;3.13;;;17.50;85.90;;;;;;5007174;28;20046;-79
2023/10/07 06:55:22;;;;;;;10.93;3.33;;;17.50;85.70;;;;;;5006275;28;20273;-80
2023/10/07 06:57:53;;;;;;;10.27;3.33;;;17.50;85.70;;;;;;5007083;28;20170;-81
2023/10/07 07:00:23;;;;;;;11.60;3.40;;;17.50;85.90;;;;;;5007510;28;20432;-83
2023/10/07 07:02:58;;;;;;;10.77;2.97;;;17.50;86.00;;;;;;5011597;28;20058;-83
2023/10/07 07:05:27;;;;;;;11.70;3.00;;;17.50;85.90;;;;;;5002260;28;20511;-82
2023/10/07 07:07:54;;;;;;;10.45;2.95;;;17.50;86.00;;;;;;5023166;28;20345;-82
2023/10/07 07:10:28;;;;;;;12.75;3.60;;;17.50;85.90;;;;;;5012195;28;20054;-83
2023/10/07 07:13:12;;;;;;;13.27;3.40;;;17.50;86.00;;;;;;5010588;28;20052;-83
2023/10/07 07:15:42;;;;;;;10.82;3.45;;;17.50;86.00;;;;;;5008674;28;20042;-83
2023/10/07 07:18:15;;;;;;;10.63;3.03;;;17.50;86.00;;;;;;5006457;28;20053;-82
2023/10/07 07:20:53;;;;;;;11.00;3.40;;;17.50;86.00;;;;;;5009481;28;20647;-81
2023/10/07 07:23:24;;;;;;;13.27;3.38;;;17.60;86.00;;;;;;5022260;28;20473;-82
2023/10/07 07:25:59;;;;;;;13.18;3.67;;;17.60;86.00;;;;;;4992711;28;20047;-81
2023/10/07 07:28:27;;;;;;;9.93;3.50;;;17.60;86.20;;;;;;4992698;28;20046;-81
2023/10/07 07:30:57;;;;;;;12.00;3.50;;;17.60;86.10;;;;;;5009073;28;20057;-82
2023/10/07 07:33:28;;;;;;;10.25;3.03;;;17.60;86.20;;;;;;5016216;28;20397;-82
2023/10/07 07:36:03;;;;;;;13.20;3.22;;;17.60;86.20;;;;;;4987472;28;20061;-82
2023/10/07 07:38:43;;;;;;;14.18;4.05;;;17.70;86.00;;;;;;5015903;28;20108;-82
2023/10/07 07:41:26;;;;;;;14.05;3.70;;;17.70;86.00;;;;;;5021133;28;20467;-83
2023/10/07 07:43:58;;;;;;;11.83;2.83;;;17.70;86.10;;;;;;5016036;28;20054;-82
2023/10/07 07:46:29;;;;;;;11.07;2.58;;;17.70;86.10;;;;;;4999944;28;20289;-82
2023/10/07 07:49:05;;;;;;;10.23;3.33;;;17.80;86.10;;;;;;4991769;28;20047;-83
2023/10/07 07:51:37;;;;;;;12.55;3.15;;;17.80;86.00;;;;;;5019617;28;20504;-82
2023/10/07 07:54:08;;;;;;;12.57;3.60;;;17.80;85.70;;;;;;4999033;28;20054;-82
2023/10/07 07:56:36;;;;;;;11.57;3.80;;;17.80;85.90;;;;;;5009113;28;20058;-81
2023/10/07 07:59:13;;;;;;;10.27;3.60;;;17.80;85.50;;;;;;5005290;28;20254;-82
2023/10/07 08:01:44;;;;;;;7.63;2.50;;;17.80;85.40;;;;;;5008817;28;20051;-83
2023/10/07 08:04:17;;;;;;;11.63;3.13;;;17.90;85.20;;;;;;5012173;28;20046;-83
2023/10/07 08:06:47;;;;;;;8.95;2.42;;;17.90;84.90;;;;;;5004257;28;20077;-82
2023/10/07 08:09:19;;;;;;;10.13;2.57;;;18.00;85.00;;;;;;4996677;28;20054;-80
2023/10/07 08:11:47;;;;;;;11.52;2.60;;;18.00;84.80;;;;;;5015070;28;21448;-80
2023/10/07 08:14:15;;;;;;;10.05;2.13;;;18.00;84.70;;;;;;5003007;28;20520;-80
2023/10/07 08:16:51;;;;;;;10.73;2.88;;;18.10;84.60;;;;;;5009468;28;20185;-80
2023/10/07 08:19:20;;;;;;;13.57;3.00;;;18.10;84.50;;;;;;5004431;28;20045;-80
2023/10/07 08:21:51;;;;;;;12.80;3.10;;;18.10;84.40;;;;;;5019191;28;20137;-81
2023/10/07 08:24:20;;;;;;;12.75;3.20;;;18.10;84.40;;;;;;5020904;28;20748;-80
2023/10/07 08:26:59;;;;;;;9.70;2.85;;;18.10;84.10;;;;;;5028031;28;20068;-79
2023/10/07 08:29:34;;;;;;;12.82;2.45;;;18.10;84.00;;;;;;5020403;28;20492;-80
2023/10/07 08:32:13;;;;;;;11.02;3.00;;;18.10;83.90;;;;;;5006706;28;20132;-80
2023/10/07 08:34:47;;;;;;;9.63;2.40;;;18.10;83.90;;;;;;4994180;28;20525;-80
2023/10/07 08:37:15;;;;;;;6.93;1.92;;;18.20;83.90;;;;;;5003052;28;21000;-80
2023/10/07 08:39:45;;;;;;;7.57;2.88;;;18.20;83.80;;;;;;5022224;28;20058;-81
2023/10/07 08:42:17;;;;;;;10.75;3.70;;;18.20;83.80;;;;;;5004928;28;20054;-79
2023/10/07 08:44:51;;;;;;;10.70;2.72;;;18.20;83.50;;;;;;5014320;28;20592;-81
2023/10/07 08:47:22;;;;;;;11.13;2.83;;;18.20;83.50;;;;;;4991475;28;20607;-81
2023/10/07 08:49:52;;;;;;;13.07;1.88;;;18.20;83.50;;;;;;4991593;28;20879;-80
2023/10/07 08:52:20;;;;;;;14.70;3.40;;;18.20;83.40;;;;;;4991483;28;20080;-79
2023/10/07 08:54:47;;;;;;;11.15;2.28;;;18.20;83.60;;;;;;4996990;28;20472;-80
2023/10/07 08:57:22;;;;;;;9.57;2.88;;;18.20;83.30;;;;;;5014550;28;20527;-80
2023/10/07 08:59:52;;;;;;;11.47;2.77;;;18.20;83.30;;;;;;5002136;28;20497;-79
2023/10/07 09:02:31;;;;;;;12.27;2.83;;;18.20;83.40;;;;;;4990116;28;20816;-80
2023/10/07 09:05:05;;;;;;;10.55;3.78;;;18.20;83.50;;;;;;5018890;28;20551;-80
2023/10/07 09:07:33;;;;;;;13.18;3.13;;;18.20;83.30;;;;;;5022406;28;20056;-80
2023/10/07 09:10:10;;;;;;;9.38;2.45;;;18.20;83.40;;;;;;5007729;28;20050;-83
2023/10/07 09:12:45;;;;;;;9.47;2.67;;;18.30;83.60;;;;;;5014827;28;20042;-81
2023/10/07 09:15:19;;;;;;;12.32;2.85;;;18.30;83.30;;;;;;5008827;28;20258;-81
2023/10/07 09:17:48;;;;;;;11.63;3.20;;;18.30;83.20;;;;;;5017405;28;20645;-80
2023/10/07 09:20:18;;;;;;;12.77;2.50;;;18.30;82.80;;;;;;5009751;28;20054;-82
2023/10/07 09:22:51;;;;;;;8.93;2.40;;;18.30;82.70;;;;;;4999413;28;20058;-81
2023/10/07 09:25:30;;;;;;;11.87;3.20;;;18.40;82.60;;;;;;5007656;28;20503;-80
2023/10/07 09:28:01;;;;;;;9.88;3.10;;;18.40;82.20;;;;;;4989619;28;20833;-82
2023/10/07 09:30:44;;;;;;;9.65;2.72;;;18.40;81.40;;;;;;5006664;28;20054;-84
2023/10/07 09:33:14;;;;;;;10.30;3.33;;;18.50;81.40;;;;;;4994967;28;20066;-84
2023/10/07 09:35:43;;;;;;;12.15;3.25;;;18.50;81.50;;;;;;5005045;28;20055;-80
2023/10/07 09:38:22;;;;;;;9.80;2.60;;;18.50;81.70;;;;;;5014285;28;20532;-80
2023/10/07 09:43:37;;;;;;;10.27;3.45;;;18.60;80.40;;;;;;4987872;28;20062;-83
2023/10/07 09:46:03;;;;;;;10.45;3.20;;;18.60;80.70;;;;;;5003112;28;20515;-84
2023/10/07 09:48:33;;;;;;;13.35;3.33;;;18.60;80.70;;;;;;5008100;28;20113;-82
2023/10/07 09:51:02;;;;;;;11.07;2.30;;;18.60;81.00;;;;;;4997511;28;20056;-82
2023/10/07 09:53:42;;;;;;;13.13;2.70;;;18.60;80.70;;;;;;5013634;28;20270;-82
2023/10/07 09:56:29;;;;;;;8.90;2.85;;;18.70;80.50;;;;;;5000240;28;20125;-81
2023/10/07 09:59:22;;;;;;;10.90;2.55;;;18.70;80.70;;;;;;4993736;28;20164;-82
2023/10/07 10:02:05;;;;;;;8.27;2.47;;;18.70;80.50;;;;;;5008730;28;20050;-82
2023/10/07 10:04:52;;;;;;;9.10;2.93;;;18.70;80.00;;;;;;5005050;28;20493;-82
2023/10/07 10:07:44;;;;;;;11.65;3.08;;;18.70;79.90;;;;;;4993169;28;20260;-81
2023/10/07 10:10:14;;;;;;;12.57;3.35;;;18.70;80.00;;;;;;4987801;28;20057;-82
2023/10/07 10:12:56;;;;;;;11.50;2.92;;;18.70;80.40;;;;;;4992320;28;20156;-82
2023/10/07 10:18:35;;;;;;;13.60;4.10;;;18.70;80.30;;;;;;5008409;28;20054;-81
2023/10/07 10:21:04;;;;;;;15.02;4.13;;;18.70;80.40;;;;;;5006661;28;20689;-82
2023/10/07 10:23:33;;;;;;;10.13;3.00;;;18.70;80.10;;;;;;4989988;28;20677;-82
2023/10/07 10:26:14;;;;;;;12.25;3.08;;;18.70;80.30;;;;;;4989974;28;20062;-82
2023/10/07 10:28:43;;;;;;;8.55;2.33;;;18.70;80.20;;;;;;5006050;28;20089;-82
2023/10/07 10:31:21;;;;;;;8.23;2.07;;;18.80;79.50;;;;;;4989796;28;20056;-82
2023/10/07 10:33:49;;;;;;;9.75;2.67;;;18.80;79.80;;;;;;4973707;28;20337;-81
2023/10/07 10:36:21;;;;;;;11.88;3.50;;;18.80;79.90;;;;;;4989699;28;20055;-82
2023/10/07 10:38:48;;;;;;;12.15;2.47;;;18.80;80.10;;;;;;4989279;28;20165;-82
2023/10/07 10:41:26;;;;;;;8.02;2.72;;;18.80;79.50;;;;;;4975605;28;20162;-81
2023/10/07 10:44:03;;;;;;;10.60;3.07;;;18.80;79.80;;;;;;4989806;28;20056;-82
2023/10/07 10:46:44;;;;;;;11.25;2.72;;;18.80;79.30;;;;;;4989930;28;20753;-82
2023/10/07 10:49:12;;;;;;;13.88;3.42;;;18.90;78.90;;;;;;4991461;28;20139;-82
2023/10/07 10:51:45;;;;;;;11.55;3.13;;;18.90;78.70;;;;;;5025785;28;20053;-82
2023/10/07 10:54:14;;;;;;;12.60;2.88;;;18.90;78.90;;;;;;5022279;28;20054;-82
2023/10/07 10:56:49;;;;;;;15.07;3.27;;;18.90;78.80;;;;;;4993122;28;20061;-82
2023/10/07 10:59:16;;;;;;;11.00;2.83;;;18.90;79.20;;;;;;5011677;28;20325;-82
2023/10/07 11:01:44;;;;;;;9.30;2.83;;;18.90;79.00;;;;;;5029202;28;20049;-82
2023/10/07 11:04:13;;;;;;;12.60;3.33;;;19.00;79.00;;;;;;5008864;28;20512;-82
2023/10/07 11:06:42;;;;;;;12.05;3.63;;;18.90;79.30;;;;;;5000580;28;20053;-82
2023/10/07 11:09:17;;;;;;;9.73;3.17;;;19.00;79.50;;;;;;5009152;28;20694;-82
2023/10/07 11:11:48;;;;;;;10.75;2.78;;;19.00;79.00;;;;;;4992886;28;20286;-82
2023/10/07 11:14:20;;;;;;;10.43;2.92;;;19.00;78.80;;;;;;4992819;28;20550;-82
2023/10/07 11:16:48;;;;;;;7.75;2.30;;;19.00;78.00;;;;;;4992320;28;20060;-82
2023/10/07 11:19:15;;;;;;;13.35;2.55;;;19.00;77.20;;;;;;4992720;28;20053;-82
2023/10/07 11:21:44;;;;;;;9.67;2.30;;;19.00;76.80;;;;;;5004130;28;20062;-82
2023/10/07 11:24:24;;;;;;;10.32;2.75;;;19.00;75.70;;;;;;5014552;28;20706;-82
2023/10/07 11:26:52;;;;;;;11.40;2.47;;;19.00;76.20;;;;;;4991015;28;20552;-82
2023/10/07 11:29:19;;;;;;;9.75;2.65;;;18.90;76.50;;;;;;5013038;28;20050;-82
2023/10/07 11:31:47;;;;;;;12.88;3.50;;;18.90;76.40;;;;;;5001780;28;20528;-82
2023/10/07 11:34:14;;;;;;;12.87;2.97;;;18.90;76.60;;;;;;5008959;28;20108;-82
2023/10/07 11:36:48;;;;;;;9.98;3.63;;;18.90;76.30;;;;;;5014996;28;20274;-83
2023/10/07 11:39:15;;;;;;;13.23;3.08;;;19.00;75.50;;;;;;4992169;28;20410;-83
2023/10/07 11:41:43;;;;;;;12.15;2.63;;;19.00;75.80;;;;;;5016072;28;20050;-83
2023/10/07 11:44:13;;;;;;;11.77;3.22;;;19.00;75.60;;;;;;4976170;28;20050;-82
2023/10/07 11:46:41;;;;;;;12.30;2.50;;;18.90;75.90;;;;;;5008885;28;20512;-82
2023/10/07 11:49:08;;;;;;;12.38;3.22;;;18.90;75.70;;;;;;4992693;28;20267;-82
2023/10/07 11:51:35;;;;;;;12.38;3.00;;;18.90;75.10;;;;;;5009612;28;20050;-82
2023/10/07 11:54:05;;;;;;;9.18;2.70;;;18.80;75.40;;;;;;5028336;28;20219;-82
2023/10/07 11:56:32;;;;;;;8.40;2.53;;;18.80;75.60;;;;;;4995444;28;20085;-82
2023/10/07 11:58:59;;;;;;;11.37;3.23;;;18.80;76.40;;;;;;5017002;28;20595;-82
2023/10/07 12:01:27;;;;;;;9.10;2.88;;;18.80;76.00;;;;;;5008681;28;20310;-82
2023/10/07 12:03:54;;;;;;;8.05;2.35;;;18.90;75.70;;;;;;5008307;28;20146;-82
2023/10/07 12:06:21;;;;;;;11.38;2.85;;;18.90;75.90;;;;;;5007174;28;20197;-82
2023/10/07 12:08:48;;;;;;;9.63;2.65;;;18.90;75.70;;;;;;5023695;28;20136;-83
2023/10/07 12:11:18;;;;;;;9.03;2.80;;;19.00;76.70;;;;;;5024846;28;20097;-83
2023/10/07 12:13:46;;;;;;;8.40;2.35;;;19.00;75.50;;;;;;4995077;28;20277;-83
2023/10/07 12:16:13;;;;;;;10.27;3.40;;;19.10;75.00;;;;;;5016473;28;20058;-82
2023/10/07 12:18:41;;;;;;;13.60;3.03;;;19.10;74.80;;;;;;5006388;28;20052;-82
2023/10/07 12:21:12;;;;;;;7.88;2.50;;;19.10;75.10;;;;;;4991677;28;20046;-83
2023/10/07 12:23:41;;;;;;;11.60;3.30;;;19.10;75.00;;;;;;5007666;28;20076;-83
2023/10/07 12:26:13;;;;;;;16.10;3.75;;;19.10;75.40;;;;;;4991651;28;20250;-83
2023/10/07 12:28:42;;;;;;;11.23;3.38;;;19.20;75.20;;;;;;4977104;28;20050;-83
2023/10/07 12:31:11;;;;;;;15.05;3.75;;;19.20;75.20;;;;;;4991954;28;20069;-83
2023/10/07 12:33:39;;;;;;;9.38;2.40;;;19.20;74.80;;;;;;5008890;28;20058;-82
2023/10/07 12:36:14;;;;;;;10.43;3.13;;;19.20;74.60;;;;;;5028134;28;20054;-83
2023/10/07 12:38:41;;;;;;;12.90;2.72;;;19.30;74.60;;;;;;5010803;28;20253;-83
2023/10/07 12:41:09;;;;;;;12.20;3.60;;;19.30;74.80;;;;;;5027079;28;20060;-83
2023/10/07 12:43:37;;;;;;;13.50;3.60;;;19.30;75.20;;;;;;4978892;28;20074;-83
2023/10/07 12:46:09;;;;;;;11.02;3.30;;;19.30;75.00;;;;;;4991548;28;20057;-83
2023/10/07 12:48:36;;;;;;;10.63;3.03;;;19.30;75.20;;;;;;5007338;28;20053;-83
2023/10/07 12:51:04;;;;;;;12.32;3.78;;;19.30;75.10;;;;;;5022144;28;20691;-83
2023/10/07 12:53:33;;;;;;;12.15;2.80;;;19.40;74.70;;;;;;5011940;28;20065;-82
2023/10/07 12:56:12;;;;;;;9.88;2.60;;;19.40;73.40;;;;;;4975273;28;20064;-83
2023/10/07 12:58:39;;;;;;;10.65;2.80;;;19.40;73.60;;;;;;4989979;28;20050;-83
2023/10/07 13:01:12;;;;;;;11.63;3.33;;;19.40;73.70;;;;;;4991059;28;20058;-83
2023/10/07 13:03:43;;;;;;;11.38;3.22;;;19.30;73.70;;;;;;4974672;28;20312;-83
2023/10/07 13:06:11;;;;;;;7.38;2.90;;;19.30;74.30;;;;;;4990747;28;20156;-83
2023/10/07 13:08:39;;;;;;;8.85;2.65;;;19.30;74.60;;;;;;5007726;28;20046;-83
2023/10/07 13:11:11;;;;;;;11.68;3.08;;;19.30;74.80;;;;;;4994030;28;20735;-83
2023/10/07 13:13:39;;;;;;;9.47;3.10;;;19.30;74.40;;;;;;5018814;28;20055;-83